createdAt,value
2023-02-24T00:01:51.422Z,53.80
2023-02-24T00:06:57.761Z,59.90
2023-02-24T00:12:08.937Z,60.00
2023-02-24T00:17:15.776Z,65.00
2023-02-24T00:22:22.192Z,55.20
2023-02-24T00:27:28.521Z,54.80
2023-02-24T00:32:36.607Z,52.60
2023-02-24T00:37:43.297Z,58.90
2023-02-24T00:42:48.846Z,56.00
2023-02-24T00:47:57.594Z,53.30
2023-02-24T00:53:03.593Z,59.30
2023-02-24T00:58:11.291Z,58.30
2023-02-24T01:03:18.633Z,64.40
2023-02-24T01:08:24.990Z,64.90
2023-02-24T01:13:31.127Z,60.70
2023-02-24T01:18:37.460Z,58.90
2023-02-24T01:23:47.435Z,55.50
2023-02-24T01:28:54.105Z,57.90
2023-02-24T01:34:06.067Z,60.80
2023-02-24T01:39:13.597Z,65.60
2023-02-24T01:44:55.747Z,63.10
2023-02-24T01:50:03.079Z,55.80
2023-02-24T01:55:14.783Z,51.00
2023-02-24T02:00:37.929Z,58.40
2023-02-24T02:05:48.518Z,56.60
2023-02-24T02:10:58.965Z,58.20
2023-02-24T02:16:39.603Z,58.40
2023-02-24T02:22:09.048Z,54.60
2023-02-24T02:27:34.100Z,51.10
2023-02-24T02:33:21.737Z,57.90
2023-02-24T02:38:34.805Z,60.70
2023-02-24T02:43:49.190Z,58.30
2023-02-24T02:48:59.425Z,57.30
2023-02-24T02:54:12.727Z,58.30
2023-02-24T02:59:23.312Z,55.70
2023-02-24T03:04:30.265Z,62.20
2023-02-24T03:09:40.950Z,58.50
2023-02-24T03:14:53.265Z,61.50
2023-02-24T03:20:12.297Z,64.80
2023-02-24T03:25:20.173Z,62.10
2023-02-24T03:30:32.925Z,57.30
2023-02-24T03:35:42.315Z,58.20
2023-02-24T03:40:48.814Z,67.10
2023-02-24T03:46:01.550Z,66.40
2023-02-24T03:51:10.395Z,64.90
2023-02-24T03:56:40.523Z,59.50
2023-02-24T04:01:56.085Z,64.60
2023-02-24T04:07:13.725Z,69.10
2023-02-24T04:12:24.597Z,68.40
2023-02-24T04:17:38.576Z,66.00
2023-02-24T04:22:51.659Z,65.40
2023-02-24T04:28:01.337Z,68.30
2023-02-24T04:33:08.113Z,72.90
2023-02-24T04:38:15.310Z,63.10
2023-02-24T04:43:21.530Z,60.10
2023-02-24T04:48:27.460Z,64.10
2023-02-24T04:53:33.701Z,69.30
2023-02-24T04:58:42.726Z,62.60
2023-02-24T05:03:48.381Z,60.00
2023-02-24T05:08:54.058Z,65.00
2023-02-24T05:14:00.547Z,64.40
2023-02-24T05:19:25.013Z,73.60
2023-02-24T05:24:33.237Z,63.40
2023-02-24T05:29:40.486Z,61.90
2023-02-24T05:34:47.002Z,64.40
2023-02-24T05:40:00.133Z,64.80
2023-02-24T05:45:07.095Z,62.80
2023-02-24T05:50:14.954Z,69.40
2023-02-24T05:55:22.852Z,83.00
2023-02-24T06:00:28.904Z,95.00
2023-02-24T06:05:35.493Z,87.50
2023-02-24T06:10:41.073Z,80.20
2023-02-24T06:15:50.600Z,70.10
2023-02-24T06:20:56.619Z,59.20
2023-02-24T06:26:04.996Z,68.10
2023-02-24T06:31:11.485Z,60.50
2023-02-24T06:36:17.133Z,61.10
2023-02-24T06:41:23.119Z,59.70
2023-02-24T06:46:29.760Z,64.50
2023-02-24T06:51:35.475Z,60.40
2023-02-24T06:56:41.846Z,53.20
2023-02-24T07:01:47.512Z,58.20
2023-02-24T07:06:55.994Z,59.20
2023-02-24T07:12:04.168Z,48.30
2023-02-24T07:17:10.517Z,50.80
2023-02-24T07:22:17.852Z,53.30
2023-02-24T07:27:23.637Z,54.90
2023-02-24T07:32:30.507Z,49.90
2023-02-24T07:37:36.276Z,48.60
2023-02-24T07:42:42.225Z,55.80
2023-02-24T07:47:49.507Z,53.90
2023-02-24T07:52:55.653Z,49.40
2023-02-24T07:58:03.273Z,49.10
2023-02-24T08:03:09.209Z,50.30
2023-02-24T08:08:21.097Z,45.40
2023-02-24T08:13:34.820Z,44.90
2023-02-24T08:18:43.157Z,46.50
2023-02-24T08:23:49.880Z,40.50
2023-02-24T08:28:55.984Z,39.70
2023-02-24T08:34:02.245Z,43.00
2023-02-24T08:39:08.541Z,38.70
2023-02-24T08:44:18.968Z,37.70
2023-02-24T08:49:25.358Z,38.10
2023-02-24T08:54:32.023Z,41.40
2023-02-24T08:59:40.293Z,37.00
2023-02-24T09:04:47.611Z,37.00
2023-02-24T09:09:56.493Z,39.10
2023-02-24T09:15:04.851Z,42.30
2023-02-24T09:20:27.666Z,36.30
2023-02-24T09:25:44.574Z,38.60
2023-02-24T09:30:55.519Z,37.00
2023-02-24T09:41:33.605Z,34.60
2023-02-24T09:46:54.127Z,37.20
2023-02-24T09:52:08.956Z,39.10
2023-02-24T09:57:25.416Z,39.40
2023-02-24T10:02:46.652Z,36.80
2023-02-24T10:07:57.193Z,35.50
2023-02-24T10:13:17.099Z,28.70
2023-02-24T10:18:41.186Z,26.70
2023-02-24T10:24:01.052Z,25.80
2023-02-24T10:29:22.485Z,28.50
2023-02-24T10:34:32.251Z,25.90
2023-02-24T10:39:43.500Z,29.00
2023-02-24T10:45:02.271Z,23.80
2023-02-24T10:50:20.681Z,24.50
2023-02-24T10:55:43.207Z,28.00
2023-02-24T11:01:09.234Z,26.30
2023-02-24T11:06:52.690Z,22.00
2023-02-24T11:12:22.749Z,24.20
2023-02-24T11:17:29.047Z,20.90
2023-02-24T11:22:39.561Z,23.30
2023-02-24T11:27:47.663Z,28.10
2023-02-24T11:33:07.251Z,20.60
2023-02-24T11:38:28.066Z,20.00
2023-02-24T11:43:39.057Z,14.90
2023-02-24T11:48:52.263Z,15.00
2023-02-24T11:54:01.484Z,17.80
2023-02-24T11:59:14.370Z,20.20
2023-02-24T12:04:24.847Z,18.40
2023-02-24T12:09:37.107Z,18.20
2023-02-24T12:14:47.934Z,18.10
2023-02-24T12:20:01.736Z,20.80
2023-02-24T12:25:13.374Z,25.60
2023-02-24T12:30:48.628Z,18.10
2023-02-24T12:36:04.807Z,23.50
2023-02-24T12:41:29.397Z,20.30
2023-02-24T12:46:37.785Z,19.30
2023-02-24T12:51:56.620Z,21.50
2023-02-24T12:57:12.400Z,18.90
2023-02-24T13:02:30.107Z,23.60
2023-02-24T13:07:52.744Z,19.40
2023-02-24T13:13:08.538Z,16.10
2023-02-24T13:18:26.134Z,18.50
2023-02-24T13:23:31.900Z,17.60
2023-02-24T13:28:39.148Z,17.30
2023-02-24T13:33:45.836Z,17.90
2023-02-24T13:39:04.363Z,15.40
2023-02-24T13:44:30.157Z,17.10
2023-02-24T13:49:43.898Z,16.80
2023-02-24T13:55:20.683Z,14.80
2023-02-24T14:00:39.699Z,13.30
2023-02-24T14:05:45.894Z,16.40
2023-02-24T14:10:56.195Z,13.50
2023-02-24T14:16:06.694Z,13.60
2023-02-24T14:21:24.006Z,15.00
2023-02-24T14:26:44.511Z,13.90
2023-02-24T14:31:53.362Z,16.00
2023-02-24T14:37:02.002Z,15.70
2023-02-24T14:42:15.221Z,19.30
2023-02-24T14:47:24.358Z,19.30
2023-02-24T14:52:40.228Z,20.00
2023-02-24T14:57:51.807Z,20.70
2023-02-24T15:03:05.906Z,19.00
2023-02-24T15:08:24.075Z,18.00
2023-02-24T15:13:37.746Z,19.70
2023-02-24T15:18:43.981Z,18.70
2023-02-24T15:23:57.857Z,22.40
2023-02-24T15:29:14.664Z,24.00
2023-02-24T15:34:23.119Z,21.20
2023-02-24T15:39:32.398Z,23.20
2023-02-24T15:44:38.409Z,25.00
2023-02-24T15:49:44.576Z,23.90
2023-02-24T15:54:50.907Z,20.60
2023-02-24T15:59:56.948Z,18.50
2023-02-24T16:05:02.798Z,16.60
2023-02-24T16:10:15.123Z,17.10
2023-02-24T16:15:26.096Z,20.00
2023-02-24T16:20:33.770Z,18.10
2023-02-24T16:25:41.551Z,15.90
2023-02-24T16:30:48.542Z,15.10
2023-02-24T16:35:54.821Z,14.90
2023-02-24T16:41:00.798Z,14.80
2023-02-24T16:46:12.141Z,13.10
2023-02-24T16:51:18.599Z,12.70
2023-02-24T16:56:24.695Z,16.90
2023-02-24T17:01:31.297Z,19.70
2023-02-24T17:06:37.295Z,13.40
2023-02-24T17:11:44.168Z,16.20
2023-02-24T17:16:50.167Z,21.70
2023-02-24T17:21:56.576Z,21.20
2023-02-24T17:27:04.308Z,20.80
2023-02-24T17:32:10.956Z,21.40
2023-02-24T17:37:18.402Z,18.60
2023-02-24T17:42:24.488Z,19.60
2023-02-24T17:47:32.670Z,17.70
2023-02-24T17:52:38.619Z,18.40
2023-02-24T17:57:45.780Z,16.90
2023-02-24T18:02:53.010Z,15.70
2023-02-24T18:08:00.578Z,17.30
2023-02-24T18:13:06.212Z,17.50
2023-02-24T18:18:11.841Z,13.10
2023-02-24T18:23:17.675Z,16.80
2023-02-24T18:28:23.809Z,19.00
2023-02-24T18:33:29.636Z,17.70
2023-02-24T18:38:36.195Z,15.90
2023-02-24T18:43:43.272Z,21.30
2023-02-24T18:48:50.458Z,22.50
2023-02-24T18:53:57.300Z,26.30
2023-02-24T18:59:04.947Z,20.10
2023-02-24T19:04:11.584Z,20.50
2023-02-24T19:09:21.712Z,24.50
2023-02-24T19:14:28.033Z,30.40
2023-02-24T19:19:33.819Z,19.20
2023-02-24T19:24:39.748Z,26.30
2023-02-24T19:29:45.460Z,26.20
2023-02-24T19:34:51.422Z,23.80
2023-02-24T19:39:57.184Z,41.50
2023-02-24T19:45:03.969Z,38.70
2023-02-24T19:50:12.097Z,42.40
2023-02-24T19:55:18.060Z,40.70
2023-02-24T20:00:25.799Z,37.20
2023-02-24T20:05:31.531Z,49.90
2023-02-24T20:10:37.379Z,41.50
2023-02-24T20:15:43.485Z,55.40
2023-02-24T20:20:49.189Z,48.30
2023-02-24T20:25:56.710Z,41.40
2023-02-24T20:31:09.636Z,49.50
2023-02-24T20:36:17.915Z,50.60
2023-02-24T20:41:24.824Z,58.50
2023-02-24T20:46:32.147Z,58.40
2023-02-24T20:51:38.832Z,59.70
2023-02-24T20:56:46.141Z,56.40
2023-02-24T21:01:52.499Z,41.40
2023-02-24T21:06:58.364Z,39.70
2023-02-24T21:12:05.448Z,36.10
2023-02-24T21:17:12.995Z,48.40
2023-02-24T21:22:19.279Z,46.60
2023-02-24T21:27:25.948Z,49.80
2023-02-24T21:32:32.088Z,46.50
2023-02-24T21:37:40.101Z,50.80
2023-02-24T21:42:47.515Z,45.70
2023-02-24T21:47:54.265Z,52.30
2023-02-24T21:53:01.037Z,50.80
2023-02-24T21:58:07.362Z,51.40
2023-02-24T22:03:13.669Z,51.60
2023-02-24T22:08:19.676Z,55.10
2023-02-24T22:13:26.113Z,45.50
2023-02-24T22:18:32.102Z,49.50
2023-02-24T22:23:38.241Z,42.60
2023-02-24T22:28:46.665Z,50.50
2023-02-24T22:33:53.081Z,49.70
2023-02-24T22:39:00.727Z,55.60
2023-02-24T22:44:07.338Z,48.10
2023-02-24T22:49:13.471Z,47.60
2023-02-24T22:54:20.060Z,41.30
2023-02-24T22:59:26.080Z,36.90
2023-02-24T23:04:32.191Z,37.00
2023-02-24T23:09:38.632Z,39.20
2023-02-24T23:14:44.630Z,34.30
2023-02-24T23:19:50.382Z,35.80
2023-02-24T23:24:56.698Z,41.50
2023-02-24T23:30:03.751Z,29.50
2023-02-24T23:35:11.652Z,29.10
2023-02-24T23:40:17.782Z,30.80
2023-02-24T23:45:24.924Z,28.30
2023-02-24T23:50:31.859Z,26.50
2023-02-24T23:55:40.985Z,27.20
